Stations météo

Publicité
Toulon Arsenal, France (7660): Température de l'air & dewpoint: 14.08.2019 13:00:00 - 20.08.2019 13:00:00 (CEST)Toulon Arsenal, France (7660): Vitesse du vent & gusts: 14.08.2019 13:00:00 - 20.08.2019 13:00:00 (CEST)Toulon Arsenal, France (7660): Direction du vent: 14.08.2019 13:00:00 - 20.08.2019 13:00:00 (CEST)Toulon Arsenal, France (7660): Quantités de précipitations: 14.08.2019 13:00:00 - 20.08.2019 13:00:00 (CEST)
Date & Time tt [°C] td [°C] ff [km/h] ff [knt] fx [km/h] fx [knt] dd rr [mm]
20.08.2019 13:00:00 - - - - - - - -
20.08.2019 12:00:00 27,8 21,1 8 4 15 8 S 0,0
20.08.2019 11:00:00 27,2 21,7 8 4 15 8 SE 0,0
20.08.2019 10:00:00 26,0 21,2 11 6 16 9 SE 0,0
20.08.2019 09:00:00 25,2 21,3 4 2 11 6 SSE 0,0
20.08.2019 08:00:00 23,5 20,4 2 1 5 3 S -
20.08.2019 07:00:00 21,7 19,6 0 0 5 3 N 0,0
20.08.2019 06:00:00 22,1 20,2 2 1 4 2 N 0,0
20.08.2019 05:00:00 23,4 20,9 0 0 9 5 N 0,0
20.08.2019 04:00:00 22,9 20,1 0 0 8 4 N 0,0
20.08.2019 03:00:00 23,7 20,4 0 0 11 6 N 0,0
20.08.2019 02:00:00 24,1 20,8 8 4 16 9 W -
20.08.2019 01:00:00 24,2 20,5 5 3 13 7 WNW 0,0
20.08.2019 00:00:00 24,3 21,0 5 3 15 8 W 0,0
19.08.2019 23:00:00 24,1 21,2 8 4 21 11 W 0,0
19.08.2019 22:00:00 24,4 21,7 8 4 21 11 WSW 0,0
19.08.2019 21:00:00 24,5 21,4 11 6 24 13 W 0,0
19.08.2019 20:00:00 25,1 21,2 9 5 18 10 WSW -
19.08.2019 19:00:00 25,8 21,2 9 5 22 12 W 0,0
19.08.2019 18:00:00 27,3 20,4 9 5 18 10 WSW 0,0
19.08.2019 17:00:00 28,1 20,9 8 4 16 9 SW 0,0
19.08.2019 16:00:00 27,2 21,0 5 3 18 10 SSW 0,0
19.08.2019 15:00:00 27,2 20,5 8 4 21 11 S 0,0
19.08.2019 14:00:00 27,8 20,4 9 5 18 10 SE -
19.08.2019 13:00:00 27,8 20,4 11 6 18 10 SE 0,0
19.08.2019 12:00:00 27,1 19,4 11 6 18 10 SE 0,0
19.08.2019 11:00:00 26,3 20,4 9 5 15 8 SE 0,0
19.08.2019 10:00:00 25,9 19,8 5 3 9 5 SSE 0,0
19.08.2019 09:00:00 24,6 19,0 4 2 8 4 ESE 0,0
19.08.2019 08:00:00 23,4 19,1 0 0 8 4 N -
19.08.2019 07:00:00 21,4 18,6 4 2 8 4 NNE 0,0
19.08.2019 06:00:00 21,5 18,7 0 0 5 3 N 0,0
19.08.2019 05:00:00 21,3 19,2 0 0 8 4 N 0,0
19.08.2019 04:00:00 22,3 19,8 2 1 11 6 SE 0,0
19.08.2019 03:00:00 22,0 18,8 5 3 9 5 N 0,0
19.08.2019 02:00:00 22,1 19,1 2 1 8 4 N -
19.08.2019 01:00:00 23,0 19,0 4 2 18 10 NNE 0,0
19.08.2019 00:00:00 24,0 19,9 5 3 13 7 ENE 0,0
18.08.2019 23:00:00 24,4 20,3 9 5 22 12 E 0,0
18.08.2019 22:00:00 24,5 20,4 9 5 21 11 E 0,0
18.08.2019 21:00:00 24,7 20,2 9 5 18 10 ESE 0,0
18.08.2019 20:00:00 25,3 20,3 8 4 28 15 SE -
18.08.2019 19:00:00 25,1 21,2 18 10 34 18 SE 0,0
18.08.2019 18:00:00 25,6 21,3 22 12 34 18 SE 0,0
18.08.2019 17:00:00 26,1 21,1 22 12 35 19 SE 0,0
18.08.2019 16:00:00 26,1 21,1 22 12 31 17 SE 0,0
18.08.2019 15:00:00 26,1 20,7 22 12 31 17 SE 0,0
18.08.2019 14:00:00 26,4 20,5 16 9 26 14 SE -
18.08.2019 13:00:00 26,8 20,9 11 6 24 13 SE 0,0
18.08.2019 12:00:00 25,9 20,7 15 8 22 12 SE 0,0
18.08.2019 11:00:00 25,8 19,9 13 7 21 11 SE 0,0
18.08.2019 10:00:00 24,9 20,2 9 5 16 9 ESE 0,0
18.08.2019 09:00:00 25,3 19,7 5 3 15 8 E 0,0
18.08.2019 08:00:00 21,5 17,9 2 1 8 4 NE -
18.08.2019 07:00:00 19,0 16,4 0 0 4 2 N 0,0
18.08.2019 06:00:00 19,1 16,5 2 1 5 3 NNE 0,0
18.08.2019 05:00:00 19,4 16,8 0 0 5 3 N 0,0
18.08.2019 04:00:00 19,4 17,2 4 2 5 3 N 0,0
18.08.2019 03:00:00 20,0 17,6 0 0 8 4 N 0,0
18.08.2019 02:00:00 20,6 18,5 2 1 8 4 N -
18.08.2019 01:00:00 21,3 19,2 0 0 5 3 N 0,0
18.08.2019 00:00:00 22,1 19,8 2 1 11 6 WSW 0,0
17.08.2019 23:00:00 23,6 20,7 8 4 11 6 WSW 0,0
17.08.2019 22:00:00 24,0 20,9 8 4 16 9 W 0,0
17.08.2019 21:00:00 24,6 21,1 11 6 22 12 WSW 0,0
17.08.2019 20:00:00 25,3 20,8 9 5 24 13 W -
17.08.2019 19:00:00 26,2 21,0 13 7 22 12 W 0,0
17.08.2019 18:00:00 27,3 21,1 9 5 22 12 WSW 0,0
17.08.2019 17:00:00 27,4 20,7 11 6 22 12 WSW 0,0
17.08.2019 16:00:00 28,4 19,6 8 4 24 13 SSW 0,0
17.08.2019 15:00:00 26,7 20,5 9 5 21 11 S 0,0
17.08.2019 14:00:00 26,6 20,2 8 4 18 10 S -
17.08.2019 13:00:00 25,9 20,2 9 5 22 12 S 0,0
17.08.2019 12:00:00 26,4 15,7 8 4 15 8 SE 0,0
17.08.2019 11:00:00 25,2 17,4 8 4 11 6 SE 0,0
17.08.2019 10:00:00 23,3 16,3 5 3 11 6 SE 0,0
17.08.2019 09:00:00 22,6 13,9 2 1 5 3 SSE 0,0
17.08.2019 08:00:00 18,9 14,0 2 1 5 3 WNW -
17.08.2019 07:00:00 17,0 13,1 0 0 5 3 N 0,0
17.08.2019 06:00:00 17,3 12,8 4 2 5 3 NNW 0,0
17.08.2019 05:00:00 17,7 13,2 2 1 4 2 NE 0,0
17.08.2019 04:00:00 18,3 13,6 2 1 8 4 WNW 0,0
17.08.2019 03:00:00 18,8 13,9 4 2 8 4 NW 0,0
17.08.2019 02:00:00 20,1 13,1 2 1 15 8 NW -
17.08.2019 01:00:00 21,0 15,3 8 4 18 10 WNW 0,0
17.08.2019 00:00:00 21,1 16,1 11 6 24 13 W 0,0
16.08.2019 23:00:00 21,7 16,0 11 6 26 14 W 0,0
16.08.2019 22:00:00 22,4 15,7 13 7 22 12 W 0,0
16.08.2019 21:00:00 22,8 16,8 11 6 21 11 W 0,0
16.08.2019 20:00:00 26,3 15,0 9 5 18 10 W -
16.08.2019 19:00:00 28,3 13,8 8 4 16 9 W 0,0
16.08.2019 18:00:00 27,8 14,1 9 5 22 12 W 0,0
16.08.2019 17:00:00 27,7 14,3 11 6 22 12 WSW 0,0
16.08.2019 16:00:00 29,1 16,0 5 3 15 8 SSW 0,0
16.08.2019 15:00:00 29,2 15,3 8 4 15 8 SSW 0,0
16.08.2019 14:00:00 28,3 16,6 8 4 18 10 SSE -
16.08.2019 13:00:00 28,4 17,0 5 3 18 10 S 0,0
16.08.2019 12:00:00 27,3 17,2 8 4 13 7 SE 0,0
16.08.2019 11:00:00 27,2 13,5 4 2 9 5 SSE 0,0
16.08.2019 10:00:00 25,8 10,0 2 1 9 5 S 0,0
16.08.2019 09:00:00 23,6 9,9 4 2 8 4 W 0,0
16.08.2019 08:00:00 20,2 10,9 4 2 9 5 WSW -
16.08.2019 07:00:00 18,0 9,1 2 1 8 4 SSE 0,0
16.08.2019 06:00:00 19,3 9,2 4 2 11 6 WNW 0,0
16.08.2019 05:00:00 22,1 8,9 5 3 22 12 NNE 0,0
16.08.2019 04:00:00 22,9 8,9 11 6 22 12 WNW 0,0
16.08.2019 03:00:00 23,8 9,8 9 5 18 10 W 0,0
16.08.2019 02:00:00 24,3 9,5 8 4 22 12 WNW -
16.08.2019 01:00:00 23,6 12,9 11 6 24 13 WSW 0,0
16.08.2019 00:00:00 23,9 13,1 13 7 26 14 WSW 0,0
15.08.2019 23:00:00 23,5 13,9 4 2 24 13 W 0,0
15.08.2019 22:00:00 23,9 14,6 11 6 35 19 WSW 0,0
15.08.2019 21:00:00 24,2 14,6 16 9 41 22 W 0,0
15.08.2019 20:00:00 24,5 16,0 22 12 48 26 W -
15.08.2019 19:00:00 25,7 15,4 28 15 48 26 W 0,0
15.08.2019 18:00:00 26,7 13,4 24 13 48 26 W 0,0
15.08.2019 17:00:00 27,8 14,4 22 12 44 24 W 0,0
15.08.2019 16:00:00 27,8 14,8 26 14 52 28 W 0,0
15.08.2019 15:00:00 27,2 15,9 24 13 54 29 W 0,0
15.08.2019 14:00:00 26,0 15,7 29 16 50 27 W -
15.08.2019 13:00:00 26,7 13,4 22 12 48 26 W 0,0
15.08.2019 12:00:00 26,2 13,0 24 13 41 22 W 0,0
15.08.2019 11:00:00 26,1 11,8 15 8 28 15 WSW 0,0
15.08.2019 10:00:00 25,7 10,7 8 4 13 7 WSW 0,0
15.08.2019 09:00:00 23,3 12,3 8 4 9 5 SW 0,0
15.08.2019 08:00:00 19,9 9,2 0 0 8 4 N -
15.08.2019 07:00:00 17,8 8,6 4 2 9 5 WNW 0,0
15.08.2019 06:00:00 17,3 8,2 0 0 9 5 N 0,0
15.08.2019 05:00:00 17,3 9,9 2 1 8 4 NNW 0,0
15.08.2019 04:00:00 17,8 10,4 4 2 8 4 N 0,0
15.08.2019 03:00:00 18,2 10,3 2 1 8 4 ENE 0,0
15.08.2019 02:00:00 19,2 9,9 4 2 13 7 N -
15.08.2019 01:00:00 20,9 12,3 8 4 16 9 WNW 0,0
15.08.2019 00:00:00 20,6 13,3 4 2 9 5 WNW 0,0
14.08.2019 23:00:00 21,5 10,9 2 1 11 6 WNW 0,0
14.08.2019 22:00:00 21,7 12,5 4 2 16 9 W 0,0
14.08.2019 21:00:00 23,4 13,6 11 6 34 18 W 0,0
14.08.2019 20:00:00 24,5 14,0 16 9 41 22 W -
14.08.2019 19:00:00 25,8 12,6 18 10 50 27 W 0,0
14.08.2019 18:00:00 25,3 12,5 24 13 48 26 W 0,0
14.08.2019 17:00:00 25,8 13,3 24 13 48 26 WSW 0,0
14.08.2019 16:00:00 26,5 11,4 22 12 42 23 W 0,0
14.08.2019 15:00:00 - - - - - - - -
14.08.2019 14:00:00 26,4 11,3 22 12 39 21 WSW -
14.08.2019 13:00:00 25,5 10,5 22 12 42 23 W 0,0

tt = Température de l'air
td = dewpoint
ff = Vitesse du vent
fx = gusts
dd = Direction du vent
rr = Quantités de précipitations

stations d'obs. à proximité